Time;durP1;ratioP1;P1;durP2;ratioP2;P2;SDS_P1;SDS_P2;PMS_P1;PMS_P2;Temp;Humidity;BMP_temperature;BMP_pressure;BME280_temperature;BME280_humidity;BME280_pressure;Samples;Min_cycle;Max_cycle;Signal;HPM_P1;HPM_P2
2024/02/08 00:00:24;;;;;;;;;;;;;;;-1.44;100.00;99755.19;5032313;28;19933;-82
2024/02/08 00:02:51;;;;;;;;;;;;;;;-1.44;100.00;99752.53;5033457;28;19932;-82
2024/02/08 00:05:26;;;;;;;;;;;;;;;-1.39;100.00;99753.47;5024868;28;19936;-83
2024/02/08 00:08:00;;;;;;;;;;;;;;;-1.45;100.00;99746.38;5041012;28;19932;-82
2024/02/08 00:10:28;;;;;;;;;;;;;;;-1.45;100.00;99750.88;5031578;28;19933;-82
2024/02/08 00:13:01;;;;;;;;;;;;;;;-1.45;100.00;99750.88;5033381;28;19933;-82
2024/02/08 00:15:30;;;;;;;;;;;;;;;-1.51;100.00;99754.47;5044382;28;20274;-82
2024/02/08 00:18:04;;;;;;;;;;;;;;;-1.56;100.00;99753.28;5029441;28;19937;-82
2024/02/08 00:20:32;;;;;;;;;;;;;;;-1.46;100.00;99751.94;5032598;28;19924;-82
2024/02/08 00:23:08;;;;;;;;;;;;;;;-1.48;100.00;99754.81;5031932;28;19926;-82
2024/02/08 00:25:41;;;;;;;;;;;;;;;-1.45;100.00;99756.22;5041504;28;19932;-82
2024/02/08 00:28:14;;;;;;;;;;;;;;;-1.57;100.00;99754.31;5027132;28;20267;-83
2024/02/08 00:30:47;;;;;;;;;;;;;;;-1.64;100.00;99760.75;5026277;28;19937;-82
2024/02/08 00:33:20;;;;;;;;;;;;;;;-1.69;100.00;99760.59;5026808;28;19925;-82
2024/02/08 00:35:48;;;;;;;;;;;;;;;-1.74;100.00;99754.09;5028674;28;19932;-82
2024/02/08 00:38:18;;;;;;;;;;;;;;;-1.84;100.00;99753.75;5026053;28;19936;-82
2024/02/08 00:40:47;;;;;;;;;;;;;;;-1.87;100.00;99754.22;5039705;28;20397;-82
2024/02/08 00:43:20;;;;;;;;;;;;;;;-1.90;100.00;99744.78;5025105;28;19925;-82
2024/02/08 00:45:54;;;;;;;;;;;;;;;-1.91;100.00;99740.50;5028891;28;19933;-83
2024/02/08 00:48:27;;;;;;;;;;;;;;;-1.84;100.00;99734.28;5025220;28;19929;-82
2024/02/08 00:50:59;;;;;;;;;;;;;;;-1.79;100.00;99734.44;5031909;28;19924;-82
2024/02/08 00:53:34;;;;;;;;;;;;;;;-1.81;100.00;99731.19;5035930;28;19925;-82
2024/02/08 00:56:09;;;;;;;;;;;;;;;-1.84;100.00;99731.63;5037820;28;19936;-83
2024/02/08 00:58:44;;;;;;;;;;;;;;;-1.90;100.00;99731.47;5054822;28;19932;-83
2024/02/08 01:01:17;;;;;;;;;;;;;;;-1.94;100.00;99719.59;5027168;28;19936;-82
2024/02/08 01:03:50;;;;;;;;;;;;;;;-1.85;100.00;99719.31;5020508;28;19932;-82
2024/02/08 01:06:23;;;;;;;;;;;;;;;-1.90;100.00;99722.66;5028434;28;19926;-82
2024/02/08 01:08:57;;;;;;;;;;;;;;;-1.88;100.00;99724.06;5023604;28;19944;-82
2024/02/08 01:11:25;;;;;;;;;;;;;;;-1.92;100.00;99711.38;5027048;28;19944;-82
2024/02/08 01:13:53;;;;;;;;;;;;;;;-1.92;100.00;99714.88;5042459;28;19933;-82
2024/02/08 01:16:30;;;;;;;;;;;;;;;-1.91;100.00;99721.81;5025485;28;19925;-82
2024/02/08 01:18:58;;;;;;;;;;;;;;;-1.86;100.00;99723.00;5025859;28;19933;-83
2024/02/08 01:21:31;;;;;;;;;;;;;;;-1.84;100.00;99712.97;5042602;28;19925;-82
2024/02/08 01:24:00;;;;;;;;;;;;;;;-1.83;100.00;99710.06;5028444;28;20409;-82
2024/02/08 01:26:33;;;;;;;;;;;;;;;-1.84;100.00;99705.75;5029020;28;19932;-82
2024/02/08 01:29:07;;;;;;;;;;;;;;;-1.88;100.00;99702.75;5052163;28;19936;-83
2024/02/08 01:31:40;;;;;;;;;;;;;;;-1.82;100.00;99693.03;5022267;28;19925;-82
2024/02/08 01:34:08;;;;;;;;;;;;;;;-1.88;100.00;99701.91;5058520;28;19925;-82
2024/02/08 01:36:41;;;;;;;;;;;;;;;-1.90;100.00;99699.47;5055375;28;19936;-83
2024/02/08 01:39:22;;;;;;;;;;;;;;;-1.83;100.00;99693.25;5027954;28;19932;-82
2024/02/08 01:41:50;;;;;;;;;;;;;;;-1.90;100.00;99696.78;5043562;28;19936;-82
2024/02/08 01:44:21;;;;;;;;;;;;;;;-1.94;100.00;99692.94;5029627;28;20432;-82
2024/02/08 01:46:50;;;;;;;;;;;;;;;-1.92;100.00;99703.38;5020708;28;19936;-84
2024/02/08 01:49:24;;;;;;;;;;;;;;;-1.81;100.00;99696.50;5025133;28;19933;-82
2024/02/08 01:52:00;;;;;;;;;;;;;;;-1.78;100.00;99698.72;5022909;28;19940;-83
2024/02/08 01:54:30;;;;;;;;;;;;;;;-1.85;100.00;99696.16;5026223;28;19933;-82
2024/02/08 01:57:08;;;;;;;;;;;;;;;-1.81;100.00;99685.84;5056886;28;19926;-82
2024/02/08 01:59:36;;;;;;;;;;;;;;;-1.89;100.00;99681.63;5053799;28;19925;-84
2024/02/08 02:02:10;;;;;;;;;;;;;;;-1.85;100.00;99681.97;5023540;28;19936;-83
2024/02/08 02:04:39;;;;;;;;;;;;;;;-1.78;100.00;99677.38;5027598;28;19947;-82
2024/02/08 02:07:07;;;;;;;;;;;;;;;-1.79;100.00;99683.78;5026659;28;19934;-82
2024/02/08 02:09:39;;;;;;;;;;;;;;;-1.82;100.00;99679.69;5030081;28;20385;-82
2024/02/08 02:12:15;;;;;;;;;;;;;;;-1.75;100.00;99683.09;5041035;28;19971;-82
2024/02/08 02:14:44;;;;;;;;;;;;;;;-1.70;100.00;99674.41;5024754;28;20379;-82
2024/02/08 02:17:13;;;;;;;;;;;;;;;-1.75;100.00;99671.63;5028841;28;19925;-82
2024/02/08 02:19:47;;;;;;;;;;;;;;;-1.66;100.00;99683.59;5029264;28;19925;-82
2024/02/08 02:22:21;;;;;;;;;;;;;;;-1.74;100.00;99676.72;5028085;28;19925;-82
2024/02/08 02:24:49;;;;;;;;;;;;;;;-1.74;100.00;99665.22;5059065;28;19925;-82
2024/02/08 02:27:18;;;;;;;;;;;;;;;-1.71;100.00;99660.28;5054709;28;19929;-82
2024/02/08 02:29:52;;;;;;;;;;;;;;;-1.72;100.00;99661.31;5063233;28;20298;-84
2024/02/08 02:32:30;;;;;;;;;;;;;;;-1.69;100.00;99664.56;5030466;28;19929;-82
2024/02/08 02:35:04;;;;;;;;;;;;;;;-1.70;100.00;99661.06;5034169;28;20674;-82
2024/02/08 02:37:39;;;;;;;;;;;;;;;-1.61;100.00;99667.75;5047940;28;19929;-82
2024/02/08 02:40:21;;;;;;;;;;;;;;;-1.57;100.00;99671.59;5034691;28;19929;-84
2024/02/08 02:42:51;;;;;;;;;;;;;;;-1.52;100.00;99670.91;5065690;28;19925;-82
2024/02/08 02:45:28;;;;;;;;;;;;;;;-1.49;100.00;99674.97;5034161;28;20377;-82
2024/02/08 02:48:02;;;;;;;;;;;;;;;-1.55;100.00;99671.38;5040674;28;19929;-82
2024/02/08 02:50:32;;;;;;;;;;;;;;;-1.51;100.00;99667.22;5034608;28;19928;-82
2024/02/08 02:53:06;;;;;;;;;;;;;;;-1.53;100.00;99666.63;5038198;28;19936;-82
2024/02/08 02:55:35;;;;;;;;;;;;;;;-1.53;100.00;99669.31;5034539;28;19929;-83
2024/02/08 02:58:03;;;;;;;;;;;;;;;-1.51;100.00;99664.53;5032232;28;19925;-82
2024/02/08 03:00:37;;;;;;;;;;;;;;;-1.52;100.00;99665.56;5034949;28;19933;-83
2024/02/08 03:03:12;;;;;;;;;;;;;;;-1.49;100.00;99658.97;5033892;28;19932;-82
2024/02/08 03:05:46;;;;;;;;;;;;;;;-1.55;100.00;99661.53;5032376;28;19948;-83
2024/02/08 03:08:20;;;;;;;;;;;;;;;-1.56;100.00;99661.72;5027258;28;19933;-83
2024/02/08 03:10:53;;;;;;;;;;;;;;;-1.51;100.00;99664.53;5045791;28;20313;-83
2024/02/08 03:13:26;;;;;;;;;;;;;;;-1.55;100.00;99658.84;5024395;28;20302;-83
2024/02/08 03:15:54;;;;;;;;;;;;;;;-1.54;100.00;99665.78;5056148;28;19925;-82
2024/02/08 03:18:29;;;;;;;;;;;;;;;-1.43;100.00;99653.56;5031971;28;19940;-83
2024/02/08 03:21:02;;;;;;;;;;;;;;;-1.49;100.00;99657.13;5041016;28;19926;-82
2024/02/08 03:23:38;;;;;;;;;;;;;;;-1.47;100.00;99663.03;5043264;28;19926;-83
2024/02/08 03:26:07;;;;;;;;;;;;;;;-1.48;100.00;99656.06;5059107;28;19925;-82
2024/02/08 03:28:35;;;;;;;;;;;;;;;-1.44;100.00;99657.25;5046056;28;19925;-82
2024/02/08 03:31:03;;;;;;;;;;;;;;;-1.43;100.00;99655.41;5040513;28;19926;-83
2024/02/08 03:33:37;;;;;;;;;;;;;;;-1.41;100.00;99651.50;5031731;28;20293;-82
2024/02/08 03:36:10;;;;;;;;;;;;;;;-1.37;100.00;99651.81;5030055;28;19937;-83
2024/02/08 03:38:47;;;;;;;;;;;;;;;-1.37;100.00;99652.66;5060588;28;20396;-82
2024/02/08 03:41:20;;;;;;;;;;;;;;;-1.33;100.00;99654.88;5027009;28;19933;-82
2024/02/08 03:43:53;;;;;;;;;;;;;;;-1.32;100.00;99643.97;5030911;28;19925;-83
2024/02/08 03:46:26;;;;;;;;;;;;;;;-1.37;100.00;99644.66;5027665;28;19925;-82
2024/02/08 03:48:59;;;;;;;;;;;;;;;-1.33;100.00;99646.88;5031635;28;19932;-82
2024/02/08 03:51:30;;;;;;;;;;;;;;;-1.37;100.00;99652.66;5031182;28;19925;-82
2024/02/08 03:54:08;;;;;;;;;;;;;;;-1.34;100.00;99640.72;5024566;28;20571;-82
2024/02/08 03:56:41;;;;;;;;;;;;;;;-1.26;100.00;99637.69;5027580;28;19932;-82
2024/02/08 03:59:26;;;;;;;;;;;;;;;-1.24;100.00;99640.97;5059088;28;19929;-84
2024/02/08 04:02:00;;;;;;;;;;;;;;;-1.32;100.00;99633.28;5055722;28;19929;-82
2024/02/08 04:04:34;;;;;;;;;;;;;;;-1.28;100.00;99636.31;5028614;28;20311;-82
2024/02/08 04:07:20;;;;;;;;;;;;;;;-1.28;100.00;99639.00;5060233;28;19925;-82
2024/02/08 04:10:10;;;;;;;;;;;;;;;-1.23;100.00;99644.44;5030819;28;19932;-83
2024/02/08 04:54:40;;;;;;;;;;;;;;;-1.08;100.00;99642.19;5044517;28;19925;-82
2024/02/08 04:57:08;;;;;;;;;;;;;;;-1.07;100.00;99635.78;5044630;28;19948;-83
2024/02/08 04:59:40;;;;;;;;;;;;;;;-1.05;100.00;99635.56;5028462;28;19925;-82
2024/02/08 05:02:09;;;;;;;;;;;;;;;-1.02;100.00;99637.78;5055496;28;19925;-82
2024/02/08 05:04:42;;;;;;;;;;;;;;;-1.00;100.00;99629.53;5028380;28;19939;-83
2024/02/08 05:07:15;;;;;;;;;;;;;;;-0.89;100.00;99626.06;5055352;28;20274;-82
2024/02/08 05:09:48;;;;;;;;;;;;;;;-0.90;100.00;99622.59;5022022;28;20381;-82
2024/02/08 05:12:21;;;;;;;;;;;;;;;-0.95;100.00;99632.31;5021703;28;19936;-83
2024/02/08 05:14:55;;;;;;;;;;;;;;;-0.96;100.00;99622.72;5026839;28;20421;-82
2024/02/08 05:17:23;;;;;;;;;;;;;;;-0.95;100.00;99625.13;5028501;28;19932;-82
2024/02/08 05:19:56;;;;;;;;;;;;;;;-0.89;100.00;99618.88;5027125;28;20274;-82
2024/02/08 05:22:24;;;;;;;;;;;;;;;-0.87;100.00;99616.78;5028480;28;20366;-82
2024/02/08 05:24:58;;;;;;;;;;;;;;;-0.82;100.00;99621.44;5056498;28;19951;-83
2024/02/08 05:27:31;;;;;;;;;;;;;;;-0.86;100.00;99621.09;5028051;28;19925;-83
2024/02/08 05:30:01;;;;;;;;;;;;;;;-0.90;100.00;99625.28;5027418;28;19948;-82
2024/02/08 05:32:29;;;;;;;;;;;;;;;-0.87;100.00;99632.00;5030015;28;19925;-83
2024/02/08 05:34:57;;;;;;;;;;;;;;;-0.88;100.00;99625.03;5041850;28;19949;-83
2024/02/08 05:37:29;;;;;;;;;;;;;;;-0.77;100.00;99631.44;5044463;28;19925;-83
2024/02/08 05:39:57;;;;;;;;;;;;;;;-0.79;100.00;99634.31;5031258;28;19928;-83
2024/02/08 05:42:30;;;;;;;;;;;;;;;-0.83;100.00;99643.03;5039879;28;20294;-82
2024/02/08 05:45:18;;;;;;;;;;;;;;;-0.83;100.00;99643.03;5025407;28;19933;-82
2024/02/08 05:47:52;;;;;;;;;;;;;;;-0.78;100.00;99646.66;5027836;28;19933;-83
2024/02/08 05:50:22;;;;;;;;;;;;;;;-0.80;100.00;99639.91;5024195;28;19933;-82
2024/02/08 05:52:57;;;;;;;;;;;;;;;-0.79;100.00;99639.66;5040044;28;19925;-83
2024/02/08 05:55:33;;;;;;;;;;;;;;;-0.76;100.00;99630.38;5046011;28;20723;-82
2024/02/08 05:58:03;;;;;;;;;;;;;;;-0.75;100.00;99637.34;5051658;28;19933;-82
2024/02/08 06:00:45;;;;;;;;;;;;;;;-0.76;100.00;99641.06;5022579;28;19929;-82
2024/02/08 06:03:25;;;;;;;;;;;;;;;-0.73;100.00;99637.97;5023569;28;19929;-82
2024/02/08 06:06:06;;;;;;;;;;;;;;;-0.76;100.00;99641.06;5024685;28;19930;-84
2024/02/08 06:08:39;;;;;;;;;;;;;;;-0.77;100.00;99648.28;5024670;28;19936;-82
2024/02/08 06:11:16;;;;;;;;;;;;;;;-0.79;100.00;99654.88;5023929;28;19929;-82
2024/02/08 06:13:55;;;;;;;;;;;;;;;-0.81;100.00;99647.09;5024405;28;19930;-82
2024/02/08 06:16:33;;;;;;;;;;;;;;;-0.82;100.00;99642.00;5021485;28;19933;-82
2024/02/08 06:19:05;;;;;;;;;;;;;;;-0.90;100.00;99645.81;5034890;28;20579;-82
2024/02/08 06:21:41;;;;;;;;;;;;;;;-0.86;100.00;99647.81;5026342;28;19925;-83
2024/02/08 06:24:29;;;;;;;;;;;;;;;-0.87;100.00;99650.69;5026789;28;19929;-82
2024/02/08 06:27:02;;;;;;;;;;;;;;;-0.82;100.00;99647.34;5024584;28;19932;-82
2024/02/08 06:29:42;;;;;;;;;;;;;;;-0.87;100.00;99648.00;5030569;28;19936;-81
2024/02/08 06:32:33;;;;;;;;;;;;;;;-0.93;100.00;99636.41;5021757;28;19967;-81
2024/02/08 06:35:11;;;;;;;;;;;;;;;-0.96;100.00;99636.06;5026366;28;19929;-81
2024/02/08 06:37:44;;;;;;;;;;;;;;;-1.05;100.00;99638.22;5024472;28;19925;-82
2024/02/08 06:40:21;;;;;;;;;;;;;;;-1.04;100.00;99643.38;5024005;28;19932;-82
2024/02/08 06:46:06;;;;;;;;;;;;;;;-1.00;100.00;99645.56;5056905;28;19925;-82
2024/02/08 06:48:48;;;;;;;;;;;;;;;-0.92;100.00;99651.38;5023137;28;19929;-82
2024/02/08 07:41:40;;;;;;;;;;;;;;;-1.01;100.00;99636.72;5100564;27;19913;-82
2024/02/08 07:44:09;;;;;;;;;;;;;;;-0.96;100.00;99644.06;5078036;28;19924;-83
2024/02/08 07:46:47;;;;;;;;;;;;;;;-1.06;100.00;99639.28;5081399;28;19932;-82
2024/02/08 07:49:15;;;;;;;;;;;;;;;-1.04;100.00;99626.50;5082189;28;19925;-83
2024/02/08 07:51:49;;;;;;;;;;;;;;;-1.03;100.00;99633.50;5089436;28;19931;-83
2024/02/08 07:54:20;;;;;;;;;;;;;;;-1.00;100.00;99635.69;5100086;28;19925;-82
2024/02/08 07:56:53;;;;;;;;;;;;;;;-1.01;100.00;99633.25;5083555;28;20365;-82
2024/02/08 07:59:26;;;;;;;;;;;;;;;-0.95;100.00;99632.31;5080934;28;19935;-81
2024/02/08 08:01:59;;;;;;;;;;;;;;;-0.94;100.00;99636.63;5086713;28;19947;-82
2024/02/08 08:04:52;;;;;;;;;;;;;;;-0.93;100.00;99638.25;5079195;28;19937;-83
2024/02/08 08:07:23;;;;;;;;;;;;;;;-0.91;100.00;99646.84;5064944;28;20545;-82
2024/02/08 08:09:59;;;;;;;;;;;;;;;-0.87;100.00;99648.84;5067999;28;19928;-82
2024/02/08 08:12:30;;;;;;;;;;;;;;;-0.86;100.00;99645.13;5078051;28;19929;-81
2024/02/08 08:15:13;;;;;;;;;;;;;;;-0.81;100.00;99640.97;5058245;28;19925;-85
2024/02/08 08:17:59;;;;;;;;;;;;;;;-0.72;100.00;99648.41;5057728;28;19950;-81
2024/02/08 08:20:56;;;;;;;;;;;;;;;-0.67;100.00;99644.22;5059622;28;20320;-82
2024/02/08 08:23:29;;;;;;;;;;;;;;;-0.64;100.00;99639.22;5062057;28;19925;-80
2024/02/08 08:26:23;;;;;;;;;;;;;;;-0.61;100.00;99641.41;5067987;28;19924;-83
2024/02/08 08:29:02;;;;;;;;;;;;;;;-0.53;100.00;99626.91;5062651;28;19932;-83
2024/02/08 08:31:35;;;;;;;;;;;;;;;-0.50;100.00;99631.78;5066549;28;20135;-81
2024/02/08 08:37:07;;;;;;;;;;;;;;;-0.47;100.00;99617.97;5076087;28;19929;-83
2024/02/08 08:40:20;;;;;;;;;;;;;;;-0.53;100.00;99616.22;5080144;28;19925;-83
2024/02/08 08:42:57;;;;;;;;;;;;;;;-0.53;100.00;99616.22;5064935;28;19924;-82
2024/02/08 08:45:32;;;;;;;;;;;;;;;-0.52;100.00;99623.19;5045305;28;19932;-82
2024/02/08 08:48:01;;;;;;;;;;;;;;;-0.45;100.00;99625.75;5013131;28;19930;-85
2024/02/08 08:50:34;;;;;;;;;;;;;;;-0.43;100.00;99616.47;5017748;28;19933;-83
2024/02/08 08:53:07;;;;;;;;;;;;;;;-0.42;100.00;99625.28;4984831;28;19941;-84
2024/02/08 08:55:39;;;;;;;;;;;;;;;-0.42;100.00;99628.75;5019231;28;20822;-83
2024/02/08 08:58:12;;;;;;;;;;;;;;;-0.40;100.00;99621.34;5017645;28;20498;-84
2024/02/08 09:00:46;;;;;;;;;;;;;;;-0.41;100.00;99625.06;5011161;28;19933;-83
2024/02/08 09:03:26;;;;;;;;;;;;;;;-0.38;100.00;99621.91;5013767;28;19933;-82
2024/02/08 09:06:02;;;;;;;;;;;;;;;-0.37;100.00;99620.06;4995477;28;19934;-84
2024/02/08 09:08:42;;;;;;;;;;;;;;;-0.25;100.00;99620.03;4988572;28;19956;-82
2024/02/08 09:11:14;;;;;;;;;;;;;;;-0.26;100.00;99616.56;4996148;28;19933;-83
2024/02/08 09:13:43;;;;;;;;;;;;;;;-0.20;100.00;99615.59;4988036;28;19938;-82
2024/02/08 09:16:36;;;;;;;;;;;;;;;-0.25;100.00;99615.53;4987346;28;20020;-85
2024/02/08 09:19:13;;;;;;;;;;;;;;;-0.19;100.00;99624.47;4988017;28;19933;-83
2024/02/08 09:21:46;;;;;;;;;;;;;;;-0.20;100.00;99618.28;4996456;28;19937;-83
2024/02/08 09:24:17;;;;;;;;;;;;;;;-0.14;100.00;99618.41;4994140;28;19956;-84
2024/02/08 09:26:49;;;;;;;;;;;;;;;0.00;100.00;99622.47;4995327;28;19934;-82
2024/02/08 09:29:23;;;;;;;;;;;;;;;-0.01;100.00;99618.94;4993808;28;19940;-84
2024/02/08 09:31:58;;;;;;;;;;;;;;;0.06;100.00;99618.81;5022727;28;20537;-84
2024/02/08 09:34:36;;;;;;;;;;;;;;;0.00;100.00;99614.44;4991937;28;19933;-83
2024/02/08 09:37:06;;;;;;;;;;;;;;;0.06;100.00;99607.31;4997413;28;19938;-84
2024/02/08 09:42:26;;;;;;;;;;;;;;;0.18;100.00;99589.38;5004339;28;19941;-85
2024/02/08 09:44:59;;;;;;;;;;;;;;;0.19;100.00;99600.88;5007075;28;19928;-85
2024/02/08 09:47:31;;;;;;;;;;;;;;;0.27;100.00;99595.16;4981461;28;19925;-83
2024/02/08 09:50:08;;;;;;;;;;;;;;;0.33;100.00;99597.69;5005625;28;20412;-84
2024/02/08 09:52:45;;;;;;;;;;;;;;;0.37;100.00;99606.03;5001521;28;19980;-83
2024/02/08 09:55:19;;;;;;;;;;;;;;;0.44;100.00;99592.50;5010396;28;19933;-84
2024/02/08 09:57:48;;;;;;;;;;;;;;;0.37;100.00;99592.66;5005568;28;19933;-83
2024/02/08 10:03:31;;;;;;;;;;;;;;;0.37;100.00;99602.56;5076956;27;20392;-84
2024/02/08 10:06:00;;;;;;;;;;;;;;;0.50;100.00;99605.75;5073199;28;19947;-83
2024/02/08 10:08:34;;;;;;;;;;;;;;;0.60;100.00;99597.09;5061879;28;19932;-82
2024/02/08 10:11:23;;;;;;;;;;;;;;;0.68;100.00;99596.72;5065573;28;19932;-83
2024/02/08 10:13:56;;;;;;;;;;;;;;;0.71;100.00;99589.25;5066275;28;19931;-82
2024/02/08 10:19:28;;;;;;;;;;;;;;;0.89;100.00;99585.53;5092558;28;19936;-83
2024/02/08 10:21:57;;;;;;;;;;;;;;;0.95;100.00;99582.72;5065078;28;19932;-83
2024/02/08 10:27:20;;;;;;;;;;;;;;;1.06;100.00;99586.34;5062471;28;20925;-87
2024/02/08 10:29:56;;;;;;;;;;;;;;;1.12;100.00;99589.91;5105054;28;19932;-83
2024/02/08 10:32:27;;;;;;;;;;;;;;;1.15;100.00;99582.19;5064291;28;19950;-84
2024/02/08 10:35:13;;;;;;;;;;;;;;;1.21;100.00;99577.72;5083996;28;20297;-84
2024/02/08 10:37:49;;;;;;;;;;;;;;;1.35;100.00;99576.34;5063623;28;19940;-83
2024/02/08 10:40:28;;;;;;;;;;;;;;;1.40;100.00;99578.28;5066486;28;20351;-81
2024/02/08 10:43:16;;;;;;;;;;;;;;;1.46;100.00;99581.84;5063299;28;19932;-83
2024/02/08 10:45:53;;;;;;;;;;;;;;;1.49;100.00;99575.97;5046682;27;19937;-83
2024/02/08 10:48:22;;;;;;;;;;;;;;;1.52;100.00;99570.94;5060867;28;19932;-84
2024/02/08 10:51:02;;;;;;;;;;;;;;;1.62;100.00;99572.16;5061009;28;19924;-83
2024/02/08 10:53:48;;;;;;;;;;;;;;;1.59;100.00;99573.47;5065135;28;20010;-83
2024/02/08 10:56:40;;;;;;;;;;;;;;;1.61;100.00;99573.22;5066530;28;19929;-83
2024/02/08 10:59:14;;;;;;;;;;;;;;;1.59;100.00;99573.47;5063851;28;19939;-84
2024/02/08 11:02:01;;;;;;;;;;;;;;;1.72;100.00;99561.53;5059554;28;19932;-83
2024/02/08 11:04:40;;;;;;;;;;;;;;;1.74;100.00;99561.28;5058489;28;19935;-83
2024/02/08 11:07:23;;;;;;;;;;;;;;;1.74;100.00;99559.44;5063029;28;19932;-83
2024/02/08 11:09:59;;;;;;;;;;;;;;;1.83;100.00;99549.88;5064916;28;19939;-82
2024/02/08 11:12:29;;;;;;;;;;;;;;;1.91;100.00;99554.00;5059124;28;19932;-82
2024/02/08 11:15:00;;;;;;;;;;;;;;;2.02;100.00;99547.69;5034450;28;19936;-82
2024/02/08 11:17:35;;;;;;;;;;;;;;;2.09;100.00;99555.56;5039218;28;19940;-84
2024/02/08 11:20:05;;;;;;;;;;;;;;;2.01;100.00;99548.75;5053203;28;19932;-82
2024/02/08 11:22:42;;;;;;;;;;;;;;;2.07;100.00;99538.06;5048679;28;19932;-82
2024/02/08 11:25:23;;;;;;;;;;;;;;;2.09;100.00;99536.78;5049287;28;21312;-83
2024/02/08 11:27:56;;;;;;;;;;;;;;;2.10;100.00;99542.94;5047136;28;20729;-83
2024/02/08 11:30:33;;;;;;;;;;;;;;;2.12;100.00;99541.63;5045525;28;19932;-83
2024/02/08 11:33:12;;;;;;;;;;;;;;;2.04;100.00;99545.59;5054653;28;19939;-83
2024/02/08 11:35:45;;;;;;;;;;;;;;;2.13;100.00;99537.88;5049339;28;20514;-83
2024/02/08 11:38:15;;;;;;;;;;;;;;;2.24;100.00;99541.50;5044726;28;19940;-83
2024/02/08 11:40:45;;;;;;;;;;;;;;;2.31;100.00;99538.63;5062590;28;20783;-83
2024/02/08 11:43:23;;;;;;;;;;;;;;;2.32;100.00;99530.31;5049170;28;19943;-82
2024/02/08 11:45:57;;;;;;;;;;;;;;;2.28;100.00;99534.56;5019347;28;19940;-82
2024/02/08 11:48:26;;;;;;;;;;;;;;;2.30;100.00;99537.00;5017059;28;21553;-84
2024/02/08 11:50:58;;;;;;;;;;;;;;;2.30;100.00;99528.94;5025606;28;20432;-83
2024/02/08 11:53:32;;;;;;;;;;;;;;;2.25;100.00;99526.19;5012358;28;19933;-83
2024/02/08 11:56:08;;;;;;;;;;;;;;;2.35;100.00;99523.63;5017222;28;19933;-83
2024/02/08 11:58:42;;;;;;;;;;;;;;;2.29;100.00;99517.41;5024108;28;19933;-83
2024/02/08 12:01:17;;;;;;;;;;;;;;;2.33;100.00;99515.00;5015141;28;19933;-83
2024/02/08 12:03:45;;;;;;;;;;;;;;;2.45;100.00;99509.47;5017307;28;19933;-82
2024/02/08 12:06:26;;;;;;;;;;;;;;;2.47;100.00;99504.66;5035818;28;19933;-83
2024/02/08 12:09:02;;;;;;;;;;;;;;;2.43;100.00;99509.75;5029663;28;19940;-82
2024/02/08 12:11:35;;;;;;;;;;;;;;;2.44;100.00;99507.84;5017707;28;20310;-83
2024/02/08 12:14:06;;;;;;;;;;;;;;;2.44;100.00;99502.47;5015466;28;19952;-84
2024/02/08 12:16:34;;;;;;;;;;;;;;;2.42;100.00;99505.41;5020136;28;19932;-86
2024/02/08 12:19:05;;;;;;;;;;;;;;;2.42;100.00;99497.38;5014087;28;19933;-83
2024/02/08 12:21:38;;;;;;;;;;;;;;;2.36;100.00;99490.31;5038870;28;19933;-83
2024/02/08 12:24:15;;;;;;;;;;;;;;;2.51;100.00;99490.47;5012660;28;19940;-83
2024/02/08 12:26:53;;;;;;;;;;;;;;;2.53;100.00;99491.00;5021498;28;19933;-83
2024/02/08 12:29:29;;;;;;;;;;;;;;;2.57;100.00;99487.81;5023469;28;19932;-83
2024/02/08 12:32:05;;;;;;;;;;;;;;;2.59;100.00;99481.13;5023963;28;19933;-83
2024/02/08 12:34:38;;;;;;;;;;;;;;;2.66;100.00;99472.84;5023306;28;19933;-84
2024/02/08 12:37:12;;;;;;;;;;;;;;;2.61;100.00;99478.19;5021142;28;19929;-83
2024/02/08 12:39:46;;;;;;;;;;;;;;;2.62;100.00;99471.75;5026296;28;20393;-84
2024/02/08 12:42:23;;;;;;;;;;;;;;;2.65;100.00;99476.59;5026958;28;19944;-83
2024/02/08 12:44:56;;;;;;;;;;;;;;;2.44;100.00;99472.94;5016601;28;19928;-82
2024/02/08 12:47:24;;;;;;;;;;;;;;;2.50;100.00;99462.00;4997253;28;20514;-83
2024/02/08 12:49:57;;;;;;;;;;;;;;;2.54;100.00;99475.69;5010783;28;19933;-84
2024/02/08 12:52:25;;;;;;;;;;;;;;;2.50;100.00;99463.84;5015099;28;19932;-83
2024/02/08 12:54:55;;;;;;;;;;;;;;;2.52;100.00;99459.03;5016749;28;19933;-82
2024/02/08 12:57:27;;;;;;;;;;;;;;;2.55;100.00;99455.84;5021809;28;19933;-84
2024/02/08 13:00:03;;;;;;;;;;;;;;;2.60;100.00;99455.88;5033406;28;19933;-83
2024/02/08 13:02:36;;;;;;;;;;;;;;;2.53;100.00;99458.00;5026363;28;19943;-83
2024/02/08 13:05:09;;;;;;;;;;;;;;;2.59;100.00;99454.25;5021041;28;19933;-83
2024/02/08 13:07:43;;;;;;;;;;;;;;;2.57;100.00;99448.34;5023019;28;19933;-84
2024/02/08 13:10:15;;;;;;;;;;;;;;;2.52;100.00;99445.63;5023346;28;20586;-83
2024/02/08 13:12:57;;;;;;;;;;;;;;;2.55;100.00;99453.97;5014507;28;19933;-82
2024/02/08 13:15:43;;;;;;;;;;;;;;;2.46;100.00;99438.56;5015042;28;21346;-83
2024/02/08 13:18:18;;;;;;;;;;;;;;;2.47;100.00;99435.66;5010203;28;19932;-82
2024/02/08 13:20:48;;;;;;;;;;;;;;;2.46;100.00;99425.16;5004504;28;19933;-81
2024/02/08 13:23:21;;;;;;;;;;;;;;;2.41;100.00;99430.50;5012549;28;20301;-81
2024/02/08 13:25:55;;;;;;;;;;;;;;;2.40;100.00;99426.19;5013644;28;19935;-81
2024/02/08 13:28:24;;;;;;;;;;;;;;;2.34;100.00;99430.72;5016383;28;20393;-80
2024/02/08 13:30:57;;;;;;;;;;;;;;;2.32;100.00;99427.44;5006926;28;19933;-81
2024/02/08 13:33:28;;;;;;;;;;;;;;;2.28;100.00;99424.50;5018258;28;20594;-81
2024/02/08 13:36:08;;;;;;;;;;;;;;;2.33;100.00;99424.50;5018579;28;19932;-80
2024/02/08 13:38:42;;;;;;;;;;;;;;;2.36;100.00;99415.97;5013523;28;19944;-81
2024/02/08 13:41:16;;;;;;;;;;;;;;;2.35;100.00;99416.22;5012726;28;19940;-80
2024/02/08 13:43:51;;;;;;;;;;;;;;;2.33;100.00;99405.72;5015956;28;19932;-81
2024/02/08 13:46:19;;;;;;;;;;;;;;;2.29;100.00;99406.50;4990645;28;19971;-81
2024/02/08 13:48:52;;;;;;;;;;;;;;;2.32;100.00;99401.44;5012176;28;19933;-81
2024/02/08 13:51:26;;;;;;;;;;;;;;;2.31;100.00;99402.50;5021238;28;19933;-81
2024/02/08 13:53:55;;;;;;;;;;;;;;;2.33;100.00;99404.91;5008786;28;19933;-81
2024/02/08 13:56:30;;;;;;;;;;;;;;;2.33;100.00;99400.34;5010359;28;19956;-80
2024/02/08 13:59:02;;;;;;;;;;;;;;;2.33;100.00;99410.28;5015646;28;19940;-80
2024/02/08 14:01:35;;;;;;;;;;;;;;;2.24;100.00;99412.63;5009560;28;19933;-80
2024/02/08 14:04:07;;;;;;;;;;;;;;;2.25;100.00;99408.91;5030235;28;19932;-80
2024/02/08 14:06:42;;;;;;;;;;;;;;;2.26;100.00;99402.44;5025011;28;20725;-81
2024/02/08 14:09:20;;;;;;;;;;;;;;;2.21;100.00;99402.44;5007252;28;19933;-80
2024/02/08 14:11:55;;;;;;;;;;;;;;;2.20;100.00;99401.59;5009983;28;19940;-82
2024/02/08 14:14:40;;;;;;;;;;;;;;;2.17;100.00;99391.38;5021155;28;19940;-81
2024/02/08 14:17:10;;;;;;;;;;;;;;;2.14;100.00;99391.06;5021793;28;19933;-81
2024/02/08 14:19:42;;;;;;;;;;;;;;;2.11;100.00;99402.31;5008916;28;19932;-80
2024/02/08 14:22:16;;;;;;;;;;;;;;;2.11;100.00;99396.94;5025110;28;19933;-80
2024/02/08 14:24:51;;;;;;;;;;;;;;;2.09;100.00;99397.22;5007881;28;20302;-80
2024/02/08 14:27:23;;;;;;;;;;;;;;;2.06;100.00;99405.78;5035313;28;19940;-81
2024/02/08 14:29:51;;;;;;;;;;;;;;;2.05;100.00;99396.09;5013642;28;20393;-81
2024/02/08 14:32:24;;;;;;;;;;;;;;;2.03;100.00;99385.63;5015729;28;19933;-80
2024/02/08 14:34:52;;;;;;;;;;;;;;;2.01;100.00;99384.25;5007686;28;19933;-80
2024/02/08 14:37:21;;;;;;;;;;;;;;;2.00;100.00;99382.63;5012993;28;19932;-80
2024/02/08 14:39:49;;;;;;;;;;;;;;;1.98;100.00;99385.56;5032777;28;19925;-81
2024/02/08 14:42:27;;;;;;;;;;;;;;;1.97;100.00;99375.91;5021063;28;19943;-80
2024/02/08 14:44:56;;;;;;;;;;;;;;;1.97;100.00;99378.56;5021299;28;19944;-81
2024/02/08 14:47:31;;;;;;;;;;;;;;;1.95;100.00;99375.34;4979437;28;20452;-81
2024/02/08 14:50:48;;;;;;;;;;;;;;;1.93;100.00;99374.00;5032575;28;20410;-81
2024/02/08 14:52:54;;;;;;;;;;;;;;;1.94;100.00;99370.25;5017230;28;20617;-81
2024/02/08 14:55:25;;;;;;;;;;;;;;;1.92;100.00;99372.38;5027926;28;20275;-81
2024/02/08 14:58:00;;;;;;;;;;;;;;;1.86;100.00;99364.28;5015485;28;19933;-81
2024/02/08 15:00:57;;;;;;;;;;;;;;;1.81;100.00;99356.19;5017992;28;19933;-81
2024/02/08 15:03:27;;;;;;;;;;;;;;;1.81;100.00;99364.22;5039351;28;19932;-81
2024/02/08 15:06:00;;;;;;;;;;;;;;;1.74;100.00;99352.91;5024677;28;19933;-80